Time;durP1;ratioP1;P1;durP2;ratioP2;P2;SDS_P1;SDS_P2;PMS_P1;PMS_P2;Temp;Humidity;BMP_temperature;BMP_pressure;BME280_temperature;BME280_humidity;BME280_pressure;Samples;Min_cycle;Max_cycle;Signal;HPM_P1;HPM_P2
2021/01/06 00:01:06;;;;;;;;;;;;;;;21.58;33.07;101674.34;3092197;28;114083;-58
2021/01/06 00:02:38;;;;;;;;;;;;;;;21.64;32.87;101667.53;3090086;28;114269;-60
2021/01/06 00:04:10;;;;;;;;;;;;;;;21.71;33.06;101672.81;3095544;28;114933;-59
2021/01/06 00:05:41;;;;;;;;;;;;;;;21.78;33.03;101669.63;3094775;28;114026;-59
2021/01/06 00:07:12;;;;;;;;;;;;;;;21.84;33.20;101680.53;3097744;28;114194;-58
2021/01/06 00:08:44;;;;;;;;;;;;;;;21.91;33.56;101668.91;3094591;28;114697;-59
2021/01/06 00:10:18;;;;;;;;;;;;;;;21.96;33.33;101663.25;3094215;28;114288;-59
2021/01/06 00:11:49;;;;;;;;;;;;;;;22.01;33.52;101671.63;3096612;28;114068;-59
2021/01/06 00:13:21;;;;;;;;;;;;;;;22.06;33.57;101661.16;3098333;28;114313;-58
2021/01/06 00:14:53;;;;;;;;;;;;;;;22.11;33.45;101663.06;3096786;28;114051;-58
2021/01/06 00:16:24;;;;;;;;;;;;;;;22.14;33.31;101657.66;3092632;28;114647;-60
2021/01/06 00:17:56;;;;;;;;;;;;;;;22.21;33.35;101662.94;3100454;28;114326;-60
2021/01/06 00:19:27;;;;;;;;;;;;;;;22.26;33.44;101662.03;3096527;28;114074;-62
2021/01/06 00:20:58;;;;;;;;;;;;;;;22.30;33.15;101663.94;3094376;28;115279;-58
2021/01/06 00:22:29;;;;;;;;;;;;;;;22.35;33.58;101665.84;3096869;28;116144;-58
2021/01/06 00:24:01;;;;;;;;;;;;;;;22.38;33.84;101668.88;3093492;28;114386;-58
2021/01/06 00:25:34;;;;;;;;;;;;;;;22.41;33.30;101665.44;3087340;28;115235;-58
2021/01/06 00:27:06;;;;;;;;;;;;;;;22.45;33.42;101663.69;3097639;28;114316;-59
2021/01/06 00:28:37;;;;;;;;;;;;;;;22.45;33.24;101663.69;3096554;28;115710;-60
2021/01/06 00:30:12;;;;;;;;;;;;;;;22.48;33.28;101670.72;3097177;28;114038;-61
2021/01/06 00:31:44;;;;;;;;;;;;;;;22.49;33.49;101664.75;3095592;28;114022;-60
2021/01/06 00:33:17;;;;;;;;;;;;;;;22.51;33.39;101658.81;3092747;28;114350;-61
2021/01/06 00:34:48;;;;;;;;;;;;;;;22.52;33.18;101669.81;3097561;28;114313;-61
2021/01/06 00:36:20;;;;;;;;;;;;;;;22.53;33.21;101665.00;3095339;28;114179;-61
2021/01/06 00:37:51;;;;;;;;;;;;;;;22.54;33.35;101664.69;3097238;28;115406;-60
2021/01/06 00:39:23;;;;;;;;;;;;;;;22.56;33.55;101676.50;3098364;28;116536;-60
2021/01/06 00:40:55;;;;;;;;;;;;;;;22.57;33.39;101669.72;3096126;28;116013;-60
2021/01/06 00:42:26;;;;;;;;;;;;;;;22.56;33.42;101668.03;3099428;28;117550;-60
2021/01/06 00:43:58;;;;;;;;;;;;;;;22.57;33.41;101666.06;3091305;28;115931;-60
2021/01/06 00:45:30;;;;;;;;;;;;;;;22.57;33.55;101672.53;3099536;28;114375;-60
2021/01/06 00:47:01;;;;;;;;;;;;;;;22.58;33.74;101671.38;3099077;28;117745;-60
2021/01/06 00:48:32;;;;;;;;;;;;;;;22.57;33.59;101677.34;3096189;28;114745;-60
2021/01/06 00:50:04;;;;;;;;;;;;;;;22.57;33.77;101668.88;3091867;28;114790;-60
2021/01/06 00:51:35;;;;;;;;;;;;;;;22.57;33.99;101666.06;3093357;28;115097;-59
2021/01/06 00:53:09;;;;;;;;;;;;;;;22.56;33.83;101676.50;3099162;28;114387;-59
2021/01/06 00:54:40;;;;;;;;;;;;;;;22.56;34.17;101675.66;3097840;28;115906;-59
2021/01/06 00:56:15;;;;;;;;;;;;;;;22.56;34.05;101667.19;3093545;28;115003;-59
2021/01/06 00:57:47;;;;;;;;;;;;;;;22.55;34.18;101674.81;3097053;28;115650;-59
2021/01/06 00:59:18;;;;;;;;;;;;;;;22.56;34.21;101670.03;3096452;28;115584;-60
2021/01/06 01:00:49;;;;;;;;;;;;;;;22.54;34.36;101661.88;3102100;28;115691;-60
2021/01/06 01:02:20;;;;;;;;;;;;;;;22.53;34.43;101673.47;3097925;28;114077;-60
2021/01/06 01:03:52;;;;;;;;;;;;;;;22.52;34.44;101675.44;3097638;28;113868;-60
2021/01/06 01:05:24;;;;;;;;;;;;;;;22.51;34.47;101668.13;3096245;28;114447;-60
2021/01/06 01:06:55;;;;;;;;;;;;;;;22.50;34.64;101676.84;3097342;28;114359;-60
2021/01/06 01:08:27;;;;;;;;;;;;;;;22.50;34.84;101668.41;3098692;28;114428;-60
2021/01/06 01:09:58;;;;;;;;;;;;;;;22.48;34.48;101668.75;3097695;28;113840;-60
2021/01/06 01:11:29;;;;;;;;;;;;;;;22.48;35.04;101670.72;3098447;28;114124;-61
2021/01/06 01:13:03;;;;;;;;;;;;;;;22.46;34.85;101668.19;3097078;28;114151;-63
2021/01/06 01:14:34;;;;;;;;;;;;;;;22.46;35.23;101679.47;3098522;28;114380;-63
2021/01/06 01:16:05;;;;;;;;;;;;;;;22.46;35.03;101672.97;3095860;28;114310;-62
2021/01/06 01:17:36;;;;;;;;;;;;;;;22.45;34.92;101666.50;3096295;28;114141;-62
2021/01/06 01:19:08;;;;;;;;;;;;;;;22.44;35.00;101672.47;3097577;28;114391;-62
2021/01/06 01:20:47;;;;;;;;;;;;;;;22.43;35.18;101670.78;3094284;28;114407;-59
2021/01/06 01:22:18;;;;;;;;;;;;;;;22.43;35.21;101665.16;3096297;28;114478;-59
2021/01/06 01:23:49;;;;;;;;;;;;;;;22.41;35.33;101668.25;3102657;28;114195;-59
2021/01/06 01:25:22;;;;;;;;;;;;;;;22.39;35.22;101664.94;3097599;28;115256;-58
2021/01/06 01:26:53;;;;;;;;;;;;;;;22.38;35.37;101666.06;3092907;28;114169;-58
2021/01/06 01:28:26;;;;;;;;;;;;;;;22.36;35.31;101664.66;3096378;28;115067;-59
2021/01/06 01:29:57;;;;;;;;;;;;;;;22.37;35.94;101670.00;3095445;28;115185;-59
2021/01/06 01:31:31;;;;;;;;;;;;;;;22.35;35.79;101663.03;3096521;28;115863;-59
2021/01/06 01:33:03;;;;;;;;;;;;;;;22.35;35.59;101660.22;3097724;28;114419;-57
2021/01/06 01:34:34;;;;;;;;;;;;;;;22.32;35.84;101657.97;3098443;28;115294;-59
2021/01/06 01:36:05;;;;;;;;;;;;;;;22.30;36.05;101666.75;3097443;28;116377;-58
2021/01/06 01:37:40;;;;;;;;;;;;;;;22.29;35.67;101667.88;3097349;28;115224;-58
2021/01/06 01:39:11;;;;;;;;;;;;;;;22.28;35.84;101671.84;3098001;28;113780;-58
2021/01/06 01:40:42;;;;;;;;;;;;;;;22.27;35.56;101672.13;3097420;28;114572;-58
2021/01/06 01:42:15;;;;;;;;;;;;;;;22.25;35.77;101664.00;3098241;28;115622;-58
2021/01/06 01:43:46;;;;;;;;;;;;;;;22.21;35.89;101665.75;3094999;28;118690;-58
2021/01/06 01:45:17;;;;;;;;;;;;;;;22.21;36.13;101667.72;3100057;28;116164;-59
2021/01/06 01:46:59;;;;;;;;;;;;;;;22.20;36.07;101666.03;3099396;28;115794;-59
2021/01/06 01:48:38;;;;;;;;;;;;;;;22.19;35.92;101673.66;3097786;28;116248;-59
2021/01/06 01:50:09;;;;;;;;;;;;;;;22.17;36.17;101671.13;3095453;28;115474;-59
2021/01/06 01:51:45;;;;;;;;;;;;;;;22.15;36.07;101666.94;3100469;28;114757;-59
2021/01/06 01:53:19;;;;;;;;;;;;;;;22.12;36.23;101664.75;3100349;28;117030;-59
2021/01/06 01:54:51;;;;;;;;;;;;;;;22.11;36.25;101663.06;3086787;28;114726;-59
2021/01/06 01:56:24;;;;;;;;;;;;;;;22.09;36.21;101665.34;3094519;28;115857;-59
2021/01/06 01:58:00;;;;;;;;;;;;;;;22.06;36.47;101663.13;3090992;28;115683;-58
2021/01/06 01:59:43;;;;;;;;;;;;;;;22.06;36.21;101668.75;3093228;28;115855;-59
2021/01/06 02:01:16;;;;;;;;;;;;;;;22.04;36.55;101662.59;3099418;28;115498;-59
2021/01/06 02:03:01;;;;;;;;;;;;;;;22.02;36.57;101665.72;3099844;28;115654;-59
2021/01/06 02:04:42;;;;;;;;;;;;;;;22.00;36.64;101667.97;3097661;28;115337;-60
2021/01/06 02:06:17;;;;;;;;;;;;;;;21.98;36.70;101664.66;3091260;28;116056;-61
2021/01/06 02:07:52;;;;;;;;;;;;;;;21.96;36.75;101663.25;3095832;28;115078;-63
2021/01/06 02:09:32;;;;;;;;;;;;;;;21.94;36.57;101668.38;3099225;28;114633;-62
2021/01/06 02:11:08;;;;;;;;;;;;;;;21.91;36.53;101658.50;3095484;28;114908;-63
2021/01/06 02:12:47;;;;;;;;;;;;;;;21.89;36.77;101666.41;3092085;28;113973;-64
2021/01/06 02:14:23;;;;;;;;;;;;;;;21.87;36.79;101671.50;3099914;28;113831;-62
2021/01/06 02:16:03;;;;;;;;;;;;;;;21.86;37.18;101663.34;3099178;28;114335;-61
2021/01/06 02:17:34;;;;;;;;;;;;;;;21.85;37.19;101661.69;3099081;28;113912;-60
2021/01/06 02:19:06;;;;;;;;;;;;;;;21.83;37.31;101672.38;3099452;28;114249;-60
2021/01/06 02:20:37;;;;;;;;;;;;;;;21.81;37.29;101669.03;3085313;28;114010;-61
2021/01/06 02:22:14;;;;;;;;;;;;;;;21.80;37.40;101661.75;3093089;28;114717;-60
2021/01/06 02:23:47;;;;;;;;;;;;;;;21.78;37.54;101661.19;3086657;28;114102;-61
2021/01/06 02:25:20;;;;;;;;;;;;;;;21.76;37.57;101661.47;3095337;28;114122;-61
2021/01/06 02:26:59;;;;;;;;;;;;;;;21.75;37.43;101665.47;3088907;28;114124;-61
2021/01/06 02:28:31;;;;;;;;;;;;;;;21.73;37.61;101662.94;3093710;28;115183;-61
2021/01/06 02:30:04;;;;;;;;;;;;;;;21.73;37.58;101662.09;3102145;28;114193;-60
2021/01/06 02:31:35;;;;;;;;;;;;;;;21.71;37.58;101656.75;3094180;28;114121;-59
2021/01/06 02:33:07;;;;;;;;;;;;;;;21.70;37.46;101655.09;3087017;28;114673;-61
2021/01/06 02:34:39;;;;;;;;;;;;;;;21.68;37.72;101660.19;3086340;28;114569;-61
2021/01/06 02:36:11;;;;;;;;;;;;;;;21.67;37.69;101654.84;3085953;28;116067;-60
2021/01/06 02:37:42;;;;;;;;;;;;;;;21.66;37.76;101653.19;3099240;28;115128;-60
2021/01/06 02:39:14;;;;;;;;;;;;;;;21.64;37.85;101658.25;3091259;28;114361;-60
2021/01/06 02:40:46;;;;;;;;;;;;;;;21.64;37.78;101656.28;3086349;28;114204;-60
2021/01/06 02:42:18;;;;;;;;;;;;;;;21.63;37.94;101659.38;3088291;28;114364;-60
2021/01/06 02:43:49;;;;;;;;;;;;;;;21.61;37.93;101658.88;3089443;28;115124;-60
2021/01/06 02:45:23;;;;;;;;;;;;;;;21.59;37.88;101661.97;3096143;28;114533;-60
2021/01/06 02:46:55;;;;;;;;;;;;;;;21.59;37.89;101666.75;3097320;28;115640;-60
2021/01/06 02:48:26;;;;;;;;;;;;;;;21.57;38.16;101657.78;3094800;28;114692;-61
2021/01/06 02:49:58;;;;;;;;;;;;;;;21.54;38.04;101656.41;3092726;28;114745;-61
2021/01/06 02:51:49;;;;;;;;;;;;;;;21.53;38.20;101651.09;3092766;28;114513;-61
2021/01/06 02:53:27;;;;;;;;;;;;;;;21.51;37.76;101656.16;3093371;28;116194;-60
2021/01/06 02:55:00;;;;;;;;;;;;;;;21.49;38.13;101648.00;3091498;28;115794;-59
2021/01/06 02:56:31;;;;;;;;;;;;;;;21.48;38.05;101653.97;3094911;28;116752;-59
2021/01/06 02:58:05;;;;;;;;;;;;;;;21.47;38.17;101647.50;3089176;28;115169;-60
2021/01/06 02:59:41;;;;;;;;;;;;;;;21.45;37.91;101643.28;3098029;28;116341;-60
2021/01/06 03:01:16;;;;;;;;;;;;;;;21.45;38.17;101643.28;3098840;28;114860;-59
2021/01/06 03:02:49;;;;;;;;;;;;;;;21.43;38.23;101637.97;3099369;28;114946;-60
2021/01/06 03:04:23;;;;;;;;;;;;;;;21.41;38.23;101643.06;3109139;28;114761;-60
2021/01/06 03:06:08;;;;;;;;;;;;;;;21.41;37.98;101639.41;3087350;27;115158;-60
2021/01/06 03:07:39;;;;;;;;;;;;;;;21.38;37.96;101643.66;3096521;28;116413;-59
2021/01/06 03:09:23;;;;;;;;;;;;;;;21.36;38.09;101639.44;3098414;28;115918;-60
2021/01/06 03:10:55;;;;;;;;;;;;;;;21.35;37.85;101632.97;3097188;28;114965;-60
2021/01/06 03:12:31;;;;;;;;;;;;;;;21.32;38.13;101639.22;3098334;28;114625;-59
2021/01/06 03:14:02;;;;;;;;;;;;;;;21.29;38.08;101637.84;3091685;28;114904;-59
2021/01/06 03:15:34;;;;;;;;;;;;;;;21.29;37.87;101637.00;3100846;28;116395;-59
2021/01/06 03:17:06;;;;;;;;;;;;;;;21.27;38.13;101637.28;3102202;28;114250;-59
2021/01/06 03:18:38;;;;;;;;;;;;;;;21.25;38.19;101635.94;3088972;28;114091;-59
2021/01/06 03:20:12;;;;;;;;;;;;;;;21.23;37.93;101636.22;3097960;28;114403;-60
2021/01/06 03:21:44;;;;;;;;;;;;;;;21.22;38.38;101631.72;3093733;28;114390;-59
2021/01/06 03:23:33;;;;;;;;;;;;;;;21.21;37.79;101626.41;3096551;28;114588;-60
2021/01/06 03:25:09;;;;;;;;;;;;;;;21.19;37.93;101632.31;3096245;28;114067;-59
2021/01/06 03:26:41;;;;;;;;;;;;;;;21.16;37.87;101624.50;3092384;28;114103;-59
2021/01/06 03:28:14;;;;;;;;;;;;;;;21.15;38.16;101631.25;3086498;28;114894;-58
2021/01/06 03:29:55;;;;;;;;;;;;;;;21.14;37.75;101631.53;3092065;28;114610;-61
2021/01/06 03:31:41;;;;;;;;;;;;;;;21.13;37.76;101627.03;3095329;28;114669;-62
2021/01/06 03:33:37;;;;;;;;;;;;;;;21.10;37.78;101630.41;3086509;28;114094;-61
2021/01/06 03:35:19;;;;;;;;;;;;;;;21.08;37.81;101622.28;3085840;28;114100;-61
2021/01/06 03:37:10;;;;;;;;;;;;;;;21.06;37.90;101620.91;3084981;28;114769;-61
2021/01/06 03:39:17;;;;;;;;;;;;;;;21.03;38.47;101622.31;3097460;28;113938;-62
2021/01/06 03:41:06;;;;;;;;;;;;;;;21.02;38.09;101614.19;3094343;28;118376;-59
2021/01/06 03:42:48;;;;;;;;;;;;;;;21.00;37.97;101616.47;3086111;28;114547;-62
2021/01/06 03:44:33;;;;;;;;;;;;;;;20.98;37.98;101618.75;3086017;28;114259;-61
2021/01/06 03:46:32;;;;;;;;;;;;;;;20.95;38.21;101619.31;3086367;28;114466;-62
2021/01/06 03:48:19;;;;;;;;;;;;;;;20.92;38.28;101617.94;3095331;28;115077;-69
2021/01/06 03:50:25;;;;;;;;;;;;;;;20.92;38.46;101622.72;3085684;28;114296;-60
2021/01/06 03:52:22;;;;;;;;;;;;;;;20.90;38.59;101619.34;3098097;28;114202;-60
2021/01/06 03:54:05;;;;;;;;;;;;;;;20.87;38.31;101615.19;3090505;28;114067;-61
2021/01/06 03:55:55;;;;;;;;;;;;;;;20.85;38.33;101612.66;3088530;28;114239;-61
2021/01/06 03:58:02;;;;;;;;;;;;;;;20.84;38.31;101619.41;3089334;28;114003;-61
2021/01/06 03:59:55;;;;;;;;;;;;;;;20.83;38.17;101619.72;3087629;28;114428;-61
2021/01/06 04:01:44;;;;;;;;;;;;;;;20.80;38.39;101615.50;3088029;28;114144;-61
2021/01/06 04:03:42;;;;;;;;;;;;;;;20.78;38.20;101608.50;3086921;28;114232;-61
2021/01/06 04:05:27;;;;;;;;;;;;;;;20.75;38.33;101618.38;3097368;28;114404;-59
2021/01/06 04:07:33;;;;;;;;;;;;;;;20.74;38.34;101619.50;3095408;28;114483;-59
2021/01/06 04:09:46;;;;;;;;;;;;;;;20.71;38.34;101620.09;3082510;28;115509;-61
2021/01/06 04:11:28;;;;;;;;;;;;;;;20.69;38.19;101621.50;3086332;28;115273;-61
2021/01/06 04:13:11;;;;;;;;;;;;;;;20.68;38.15;101617.00;3091597;28;116566;-61
2021/01/06 04:14:56;;;;;;;;;;;;;;;20.67;38.70;101615.38;3085652;28;114686;-61
2021/01/06 04:16:45;;;;;;;;;;;;;;;20.64;38.20;101613.97;3095177;28;114713;-61
2021/01/06 04:18:41;;;;;;;;;;;;;;;20.63;38.38;101615.09;3093197;28;115851;-61
2021/01/06 04:20:28;;;;;;;;;;;;;;;20.61;38.85;101611.75;3092477;28;115078;-62
2021/01/06 04:22:21;;;;;;;;;;;;;;;20.59;39.01;101611.19;3087553;28;115410;-61
2021/01/06 04:23:59;;;;;;;;;;;;;;;20.59;38.78;101618.78;3086839;28;115362;-62
2021/01/06 04:25:43;;;;;;;;;;;;;;;20.57;39.14;101610.66;3089926;28;115011;-62
2021/01/06 04:27:35;;;;;;;;;;;;;;;20.55;39.13;101607.28;3099689;28;114414;-58
2021/01/06 04:29:23;;;;;;;;;;;;;;;20.53;39.35;101603.97;3093843;28;115000;-58
2021/01/06 04:31:16;;;;;;;;;;;;;;;20.53;39.48;101605.94;3100130;28;114705;-58
2021/01/06 04:33:08;;;;;;;;;;;;;;;20.50;39.46;101598.06;3098726;28;114518;-58
2021/01/06 04:34:51;;;;;;;;;;;;;;;20.48;39.23;101591.94;3098553;28;114360;-57
2021/01/06 04:36:41;;;;;;;;;;;;;;;20.47;39.04;101599.50;3094627;28;114322;-57
2021/01/06 04:38:22;;;;;;;;;;;;;;;20.46;39.20;101596.97;3095128;28;113924;-60
2021/01/06 04:40:05;;;;;;;;;;;;;;;20.43;39.12;101601.22;3097369;28;113879;-58
2021/01/06 04:41:51;;;;;;;;;;;;;;;20.43;39.11;101592.81;3097849;28;113880;-58
2021/01/06 04:43:52;;;;;;;;;;;;;;;20.41;39.49;101597.84;3097427;28;114184;-58
2021/01/06 04:45:35;;;;;;;;;;;;;;;20.40;39.19;101598.97;3095361;28;114783;-59
2021/01/06 04:47:41;;;;;;;;;;;;;;;20.39;39.12;101591.72;3096242;28;114541;-59
2021/01/06 04:49:38;;;;;;;;;;;;;;;20.38;39.08;101587.22;3095356;28;114207;-58
2021/01/06 04:51:38;;;;;;;;;;;;;;;20.37;39.00;101594.81;3094418;28;114073;-59
2021/01/06 04:53:38;;;;;;;;;;;;;;;20.35;39.22;101591.44;3097555;28;114841;-59
2021/01/06 04:55:21;;;;;;;;;;;;;;;20.35;39.14;101591.44;3093309;28;113781;-58
2021/01/06 04:57:19;;;;;;;;;;;;;;;20.33;39.08;101592.88;3089411;28;114515;-59
2021/01/06 04:59:20;;;;;;;;;;;;;;;20.31;38.95;101595.13;3101585;28;114100;-57
2021/01/06 05:01:26;;;;;;;;;;;;;;;20.28;39.00;101593.72;3090162;28;114794;-58
2021/01/06 05:03:27;;;;;;;;;;;;;;;20.26;39.21;101584.72;3098853;28;114580;-59
2021/01/06 05:05:30;;;;;;;;;;;;;;;20.27;39.12;101589.22;3087979;28;115440;-59
2021/01/06 05:07:26;;;;;;;;;;;;;;;20.27;39.02;101594.00;3086918;28;114071;-59
2021/01/06 05:09:34;;;;;;;;;;;;;;;20.30;39.00;101594.31;3087161;28;114095;-59
2021/01/06 05:11:11;;;;;;;;;;;;;;;20.34;38.80;101584.16;3087293;28;114094;-58
2021/01/06 05:12:50;;;;;;;;;;;;;;;20.35;39.11;101582.19;3096406;28;114356;-58
2021/01/06 05:14:46;;;;;;;;;;;;;;;20.38;39.33;101584.41;3084580;28;114713;-58
2021/01/06 05:16:32;;;;;;;;;;;;;;;20.41;39.23;101584.66;3086528;28;115262;-58
2021/01/06 05:18:16;;;;;;;;;;;;;;;20.46;39.77;101582.94;3086480;28;114049;-59
2021/01/06 05:19:48;;;;;;;;;;;;;;;20.48;39.78;101584.34;3086432;28;115018;-59
2021/01/06 05:21:30;;;;;;;;;;;;;;;20.48;39.52;101573.13;3088269;28;114166;-59
2021/01/06 05:23:15;;;;;;;;;;;;;;;20.53;39.41;101581.50;3098077;28;114205;-58
2021/01/06 05:24:54;;;;;;;;;;;;;;;20.56;38.88;101578.09;3103029;28;114918;-60
2021/01/06 05:26:35;;;;;;;;;;;;;;;20.60;39.24;101581.16;3097270;28;114650;-59
2021/01/06 05:28:12;;;;;;;;;;;;;;;20.64;39.17;101585.03;3097491;28;114993;-58
2021/01/06 05:29:46;;;;;;;;;;;;;;;20.67;39.16;101582.47;3095447;28;114623;-59
2021/01/06 05:31:28;;;;;;;;;;;;;;;20.71;39.13;101583.59;3092373;28;114676;-59
2021/01/06 05:33:12;;;;;;;;;;;;;;;20.75;38.85;101584.69;3092501;28;115554;-59
2021/01/06 05:34:55;;;;;;;;;;;;;;;20.80;38.68;101590.22;3094147;28;114577;-59
2021/01/06 05:36:42;;;;;;;;;;;;;;;20.84;38.59;101585.72;3092546;28;115102;-59
2021/01/06 05:38:33;;;;;;;;;;;;;;;20.91;38.38;101590.13;3097063;28;114804;-59
2021/01/06 05:40:13;;;;;;;;;;;;;;;20.95;38.58;101594.88;3098093;28;115261;-59
2021/01/06 05:42:06;;;;;;;;;;;;;;;21.01;38.67;101595.66;3096339;28;114948;-59
2021/01/06 05:43:50;;;;;;;;;;;;;;;21.05;38.50;101586.34;3095975;28;114841;-59
2021/01/06 05:45:54;;;;;;;;;;;;;;;21.10;38.63;101594.72;3097580;28;114097;-59
2021/01/06 05:47:43;;;;;;;;;;;;;;;21.16;38.66;101595.56;3094757;28;116074;-59
2021/01/06 05:49:23;;;;;;;;;;;;;;;21.20;38.17;101600.28;3094895;28;115234;-60
2021/01/06 05:51:12;;;;;;;;;;;;;;;21.26;38.25;101589.78;3092015;28;114087;-59
2021/01/06 05:52:57;;;;;;;;;;;;;;;21.30;38.22;101600.16;3093651;28;114023;-59
2021/01/06 05:54:55;;;;;;;;;;;;;;;21.35;37.87;101602.06;3091974;28;114320;-59
2021/01/06 05:56:38;;;;;;;;;;;;;;;21.39;38.04;101600.34;3094794;28;114225;-60
2021/01/06 05:58:19;;;;;;;;;;;;;;;21.43;37.56;101592.16;3096535;28;114718;-60
2021/01/06 06:00:10;;;;;;;;;;;;;;;21.46;37.67;101600.81;3092925;28;114697;-60
2021/01/06 06:02:04;;;;;;;;;;;;;;;21.54;37.38;101602.13;3096642;28;113855;-59
2021/01/06 06:04:02;;;;;;;;;;;;;;;21.54;37.75;101602.97;3096636;28;114433;-59
2021/01/06 06:06:00;;;;;;;;;;;;;;;21.59;37.60;101600.09;3093272;28;114942;-60
2021/01/06 06:07:38;;;;;;;;;;;;;;;21.61;37.49;101594.19;3094921;28;114521;-60
2021/01/06 06:09:30;;;;;;;;;;;;;;;21.65;37.58;101600.88;3094157;28;115935;-61
2021/01/06 06:11:29;;;;;;;;;;;;;;;21.67;37.58;101601.41;3097136;28;114359;-59
2021/01/06 06:13:31;;;;;;;;;;;;;;;21.72;37.46;101609.78;3102007;28;114163;-59
2021/01/06 06:15:14;;;;;;;;;;;;;;;21.77;37.11;101609.72;3092042;28;114320;-59
2021/01/06 06:17:03;;;;;;;;;;;;;;;21.80;37.38;101608.31;3096934;28;114100;-60
2021/01/06 06:19:05;;;;;;;;;;;;;;;21.84;37.25;101606.56;3098382;28;114612;-59
2021/01/06 06:21:02;;;;;;;;;;;;;;;21.89;37.31;101615.78;3090838;28;114751;-59
2021/01/06 06:23:05;;;;;;;;;;;;;;;21.93;37.21;101613.22;3095832;28;114135;-59
2021/01/06 06:25:02;;;;;;;;;;;;;;;21.96;36.83;101616.25;3094492;28;114857;-59
2021/01/06 06:26:47;;;;;;;;;;;;;;;21.99;37.11;101621.28;3092891;28;114571;-60
2021/01/06 06:28:35;;;;;;;;;;;;;;;22.03;37.10;101615.91;3096329;28;114683;-60
2021/01/06 06:30:14;;;;;;;;;;;;;;;22.06;37.03;101618.94;3096017;28;114762;-59
2021/01/06 06:31:58;;;;;;;;;;;;;;;22.08;37.04;101619.47;3091825;28;114721;-60
2021/01/06 06:33:55;;;;;;;;;;;;;;;22.12;36.69;101619.72;3090636;28;114738;-61
2021/01/06 06:35:40;;;;;;;;;;;;;;;22.14;36.86;101615.44;3094602;28;114473;-58
2021/01/06 06:37:32;;;;;;;;;;;;;;;22.19;36.80;101606.09;3094483;28;114584;-59
2021/01/06 06:39:26;;;;;;;;;;;;;;;22.21;36.74;101617.91;3097706;28;115870;-59
2021/01/06 06:41:35;;;;;;;;;;;;;;;22.25;36.57;101623.75;3107209;27;114122;-59
2021/01/06 06:43:22;;;;;;;;;;;;;;;22.29;36.80;101624.81;3094770;28;114827;-58
2021/01/06 06:45:34;;;;;;;;;;;;;;;22.32;36.42;101615.75;3096882;28;114718;-58
2021/01/06 06:47:13;;;;;;;;;;;;;;;22.35;36.63;101624.41;3095624;28;115953;-58
2021/01/06 06:49:05;;;;;;;;;;;;;;;22.37;36.48;101624.97;3094456;28;115173;-59
2021/01/06 06:50:53;;;;;;;;;;;;;;;22.40;36.58;101615.91;3095458;28;114975;-58
2021/01/06 06:52:39;;;;;;;;;;;;;;;22.42;36.48;101622.06;3097614;28;115820;-58
2021/01/06 06:54:30;;;;;;;;;;;;;;;22.44;36.44;101622.59;3094637;28;114452;-58
2021/01/06 06:56:16;;;;;;;;;;;;;;;22.48;36.48;101623.69;3109501;27;115249;-59
2021/01/06 06:58:04;;;;;;;;;;;;;;;22.51;36.56;101616.59;3093903;28;115866;-58
2021/01/06 06:59:55;;;;;;;;;;;;;;;22.53;36.44;101626.38;3089059;28;115140;-57
2021/01/06 07:01:33;;;;;;;;;;;;;;;22.56;36.51;101622.13;3095749;28;114573;-58
2021/01/06 07:03:09;;;;;;;;;;;;;;;22.58;36.43;101622.66;3098152;28;115077;-57
2021/01/06 07:04:53;;;;;;;;;;;;;;;22.61;36.32;101627.69;3095199;28;115874;-58
2021/01/06 07:06:28;;;;;;;;;;;;;;;22.63;36.43;101629.06;3093109;28;114940;-58
2021/01/06 07:08:04;;;;;;;;;;;;;;;22.65;36.62;101625.94;3097557;28;116196;-58
2021/01/06 07:09:42;;;;;;;;;;;;;;;22.70;36.69;101636.31;3093575;28;113876;-59
2021/01/06 07:11:24;;;;;;;;;;;;;;;22.71;36.27;101632.38;3096667;28;114360;-58
2021/01/06 07:13:02;;;;;;;;;;;;;;;22.73;36.23;101628.09;3097931;28;114503;-58
2021/01/06 07:14:36;;;;;;;;;;;;;;;22.75;36.27;101625.81;3094988;28;114449;-58
2021/01/06 07:16:21;;;;;;;;;;;;;;;22.78;36.33;101635.63;3097729;28;114041;-57
2021/01/06 07:17:54;;;;;;;;;;;;;;;22.80;36.34;101624.88;3098263;28;114171;-58
2021/01/06 07:19:29;;;;;;;;;;;;;;;22.81;36.15;101627.38;3096518;28;114458;-58
2021/01/06 07:21:14;;;;;;;;;;;;;;;22.84;36.25;101632.41;3095620;28;114857;-59
2021/01/06 07:22:55;;;;;;;;;;;;;;;22.85;36.34;101636.88;3096023;28;114581;-57
2021/01/06 07:24:30;;;;;;;;;;;;;;;22.88;36.49;101639.09;3094652;28;113874;-58
2021/01/06 07:26:04;;;;;;;;;;;;;;;22.91;36.55;101641.31;3096571;28;114235;-58
2021/01/06 07:27:38;;;;;;;;;;;;;;;22.92;36.46;101639.31;3097578;28;113978;-58
2021/01/06 07:29:16;;;;;;;;;;;;;;;22.95;36.38;101641.50;3095741;28;114561;-58
2021/01/06 07:30:52;;;;;;;;;;;;;;;22.97;36.41;101647.69;3098821;28;114294;-59
2021/01/06 07:32:37;;;;;;;;;;;;;;;22.98;36.34;101640.91;3095127;28;114226;-59
2021/01/06 07:34:18;;;;;;;;;;;;;;;23.00;36.07;101647.06;3091007;28;114748;-60
2021/01/06 07:35:54;;;;;;;;;;;;;;;23.01;36.46;101655.22;3085436;28;114326;-60
2021/01/06 07:37:35;;;;;;;;;;;;;;;23.02;36.32;101651.28;3087137;28;115228;-61
2021/01/06 07:39:28;;;;;;;;;;;;;;;23.05;36.29;101649.81;3088228;28;115368;-61
2021/01/06 07:41:05;;;;;;;;;;;;;;;23.08;36.37;101649.16;3093835;28;115437;-60
2021/01/06 07:42:47;;;;;;;;;;;;;;;23.10;36.44;101646.91;3086075;28;115158;-60
2021/01/06 07:44:29;;;;;;;;;;;;;;;23.12;36.55;101655.06;3099222;28;115633;-61
2021/01/06 07:46:03;;;;;;;;;;;;;;;23.14;36.42;101653.59;3085867;28;113956;-61
2021/01/06 07:47:44;;;;;;;;;;;;;;;23.16;36.26;101648.50;3085251;28;114191;-61
2021/01/06 07:49:45;;;;;;;;;;;;;;;23.17;36.38;101652.97;3087513;28;115778;-61
2021/01/06 07:51:36;;;;;;;;;;;;;;;23.19;36.31;101647.03;3087102;28;114546;-60
2021/01/06 07:53:16;;;;;;;;;;;;;;;23.21;36.27;101656.84;3089703;28;115365;-60
2021/01/06 07:55:10;;;;;;;;;;;;;;;23.23;36.00;101657.38;3091605;28;115635;-60
2021/01/06 07:57:11;;;;;;;;;;;;;;;23.26;36.14;101653.09;3088267;28;115640;-59
2021/01/06 07:58:53;;;;;;;;;;;;;;;23.28;36.00;101647.97;3084418;28;114642;-58
2021/01/06 08:00:31;;;;;;;;;;;;;;;23.30;36.04;101651.34;3089863;28;114643;-58
2021/01/06 08:02:13;;;;;;;;;;;;;;;23.30;35.92;101652.19;3088306;28;115759;-59
2021/01/06 08:04:01;;;;;;;;;;;;;;;23.33;36.01;101651.56;3091696;28;115083;-59
2021/01/06 08:05:35;;;;;;;;;;;;;;;23.33;36.01;101654.38;3089021;28;116064;-58
2021/01/06 08:07:21;;;;;;;;;;;;;;;23.34;35.96;101653.22;3088749;28;115705;-58
2021/01/06 08:08:58;;;;;;;;;;;;;;;23.35;35.83;101660.50;3088095;28;114650;-58
2021/01/06 08:10:35;;;;;;;;;;;;;;;23.39;36.08;101661.56;3100178;27;116036;-59
2021/01/06 08:12:25;;;;;;;;;;;;;;;23.41;36.01;101664.09;3090480;28;114674;-59
2021/01/06 08:14:17;;;;;;;;;;;;;;;23.42;35.61;101665.78;3087024;28;116012;-58
2021/01/06 08:15:57;;;;;;;;;;;;;;;23.43;35.95;101664.63;3099278;28;114429;-58
2021/01/06 08:17:46;;;;;;;;;;;;;;;23.46;36.04;101669.66;3089129;28;114828;-59
2021/01/06 08:19:23;;;;;;;;;;;;;;;23.47;35.80;101665.72;3100652;28;115250;-59
2021/01/06 08:21:03;;;;;;;;;;;;;;;23.48;36.01;101667.38;3090854;28;114985;-59
2021/01/06 08:23:05;;;;;;;;;;;;;;;23.49;35.79;101669.88;3091947;28;114731;-59
2021/01/06 08:24:49;;;;;;;;;;;;;;;23.53;36.43;101666.47;3099059;28;113952;-58
2021/01/06 08:26:33;;;;;;;;;;;;;;;23.55;36.37;101676.25;3100785;28;113830;-59
2021/01/06 08:28:24;;;;;;;;;;;;;;;23.55;36.12;101669.78;3094389;28;113965;-59
2021/01/06 08:30:13;;;;;;;;;;;;;;;23.56;35.84;101679.94;3089333;28;114744;-58
2021/01/06 08:31:49;;;;;;;;;;;;;;;23.59;35.99;101682.94;3088118;28;114081;-58
2021/01/06 08:33:24;;;;;;;;;;;;;;;23.59;35.96;101685.78;3093391;28;114444;-60
2021/01/06 08:35:04;;;;;;;;;;;;;;;23.61;36.03;101677.84;3097471;28;115037;-59